Niagara Falls International Airport Niagara Falls US
ICAO: KIAG
IATA: IAG
Category: Medium
Scheduled Services: No

Elevation: 589 ft
TransAlt. 18000 ft.

Airport Communications:
BUFFALO APP/DEP:126.5
ATIS:120.8
CLNC DEL:119.25
CTAF:118.5
GND:121.7
ANG OPS:26.19
914 AW COMD POST:34.002
PTD:37.22
TWR:118.5
UNICOM:122.95

KIAG Zoom In..

Runways:

(A) RW 06 length 5188 ft width 150 ft
---- / hdg 60

(B) RW 10L length 9829 ft width 150 ft
---- / hdg 100

(C) RW 10R length 3973 ft width 75 ft
---- / hdg 100

(D) RW 24 length 5188 ft width 150 ft
---- / hdg 240

(E) RW 28L length 3973 ft width 75 ft
---- / hdg 280

(F) RW 28R length 9829 ft width 150 ft
ILS 110.10 / hdg 280

Location; KIAG
Day. 21 / Time. 05.53 Zulu
* Altimeter: 29.90
* Temperature: 24° c. 75.2°f.
* Wind from: 160° Speed 12 kn with Gusts up to 18 kn.
Dewpoint: 14° c.
Visibility: 10 Statute Miles.
Clouds: Scattered 11000 ft.

KIAG 210553Z AUTO 16012G18KT 10SM SCT110 24/14 A2990 RMK AO2 SLP117 T02440144 10294 20239 50000


Wind From 160°
Speed 12 kn.

 
 
jpsmedia.com for Web Design worldairports.se 2018   terms of use